createdAt,value
2023-03-05T00:02:07.116Z,96979.66
2023-03-05T00:04:39.467Z,96957.50
2023-03-05T00:07:09.174Z,96976.19
2023-03-05T00:09:36.070Z,96975.13
2023-03-05T00:12:03.877Z,96967.91
2023-03-05T00:14:30.469Z,96976.97
2023-03-05T00:16:57.130Z,96955.13
2023-03-05T00:19:24.730Z,96974.88
2023-03-05T00:21:51.416Z,96968.41
2023-03-05T00:24:19.044Z,96970.06
2023-03-05T00:26:46.861Z,96970.06
2023-03-05T00:29:18.588Z,96963.94
2023-03-05T00:31:45.439Z,96961.00
2023-03-05T00:34:16.979Z,96965.78
2023-03-05T00:36:46.812Z,96965.28
2023-03-05T00:39:13.999Z,96966.31
2023-03-05T00:41:40.852Z,96961.78
2023-03-05T00:44:08.054Z,96959.66
2023-03-05T00:46:34.781Z,96943.34
2023-03-05T00:49:01.420Z,96946.81
2023-03-05T00:51:28.247Z,96946.56
2023-03-05T00:53:54.931Z,96947.03
2023-03-05T00:56:22.531Z,96950.78
2023-03-05T00:58:49.347Z,96938.28
2023-03-05T01:01:16.363Z,96938.00
2023-03-05T01:03:43.203Z,96936.41
2023-03-05T01:06:13.173Z,96943.63
2023-03-05T01:08:40.257Z,96932.41
2023-03-05T01:11:09.256Z,96944.19
2023-03-05T01:13:36.753Z,96930.53
2023-03-05T01:16:03.858Z,96939.09
2023-03-05T01:18:30.531Z,96925.19
2023-03-05T01:20:57.260Z,96933.47
2023-03-05T01:23:23.995Z,96934.28
2023-03-05T01:25:58.358Z,96933.75
2023-03-05T01:28:26.475Z,96934.00
2023-03-05T01:30:53.126Z,96935.63
2023-03-05T01:33:19.957Z,96930.56
2023-03-05T01:35:47.848Z,96929.22
2023-03-05T01:38:15.468Z,96935.66
2023-03-05T01:40:43.694Z,96931.38
2023-03-05T01:43:13.054Z,96930.03
2023-03-05T01:46:11.825Z,96932.69
2023-03-05T01:48:40.585Z,96930.56
2023-03-05T01:51:07.586Z,96916.91
2023-03-05T01:53:34.460Z,96919.06
2023-03-05T01:56:01.649Z,96924.13
2023-03-05T01:58:28.623Z,96918.22
2023-03-05T02:00:55.715Z,96927.88
2023-03-05T02:03:23.909Z,96912.63
2023-03-05T02:05:50.495Z,96916.91
2023-03-05T02:08:20.588Z,96913.94
2023-03-05T02:10:50.820Z,96909.38
2023-03-05T02:13:25.778Z,96882.41
2023-03-05T02:15:54.163Z,96901.63
2023-03-05T02:18:22.826Z,96897.63
2023-03-05T02:20:56.760Z,96891.75
2023-03-05T02:23:26.843Z,96900.03
2023-03-05T02:25:54.254Z,96893.63
2023-03-05T02:28:49.616Z,96904.84
2023-03-05T02:31:20.129Z,96885.28
2023-03-05T02:33:49.881Z,96893.34
2023-03-05T02:36:18.019Z,96881.88
2023-03-05T02:38:45.660Z,96884.81
2023-03-05T02:41:12.825Z,96888.00
2023-03-05T02:43:39.535Z,96889.09
2023-03-05T02:46:06.706Z,96894.97
2023-03-05T02:48:33.848Z,96880.03
2023-03-05T02:51:02.335Z,96885.94
2023-03-05T02:53:28.969Z,96890.19
2023-03-05T02:55:55.560Z,96882.94
2023-03-05T02:58:22.174Z,96886.69
2023-03-05T03:00:48.853Z,96878.66
2023-03-05T03:03:16.526Z,96880.28
2023-03-05T03:05:43.242Z,96876.81
2023-03-05T03:08:10.512Z,96875.16
2023-03-05T03:10:37.714Z,96871.72
2023-03-05T03:13:04.431Z,96877.31
2023-03-05T03:15:31.117Z,96857.84
2023-03-05T03:17:57.696Z,96865.28
2023-03-05T03:20:25.009Z,96848.75
2023-03-05T03:22:51.631Z,96852.19
2023-03-05T03:25:21.607Z,96865.84
2023-03-05T03:27:48.700Z,96863.16
2023-03-05T03:30:15.983Z,96858.88
2023-03-05T03:32:42.992Z,96855.66
2023-03-05T03:35:11.430Z,96855.94
2023-03-05T03:37:38.134Z,96867.19
2023-03-05T03:40:06.448Z,96854.94
2023-03-05T03:42:33.414Z,96859.69
2023-03-05T03:45:00.635Z,96849.00
2023-03-05T03:47:29.848Z,96826.03
2023-03-05T03:49:57.075Z,96860.47
2023-03-05T03:52:23.697Z,96842.03
2023-03-05T03:54:52.438Z,96846.06
2023-03-05T03:57:19.313Z,96843.66
2023-03-05T03:59:46.948Z,96846.31
2023-03-05T04:02:14.005Z,96850.88
2023-03-05T04:04:40.722Z,96836.69
2023-03-05T04:07:07.421Z,96847.38
2023-03-05T04:09:34.064Z,96836.16
2023-03-05T04:12:00.929Z,96839.38
2023-03-05T04:14:27.518Z,96835.63
2023-03-05T04:16:54.320Z,96818.00
2023-03-05T04:19:21.365Z,96856.53
2023-03-05T04:21:47.959Z,96836.75
2023-03-05T04:24:15.296Z,96836.75
2023-03-05T04:26:41.982Z,96826.28
2023-03-05T04:29:08.597Z,96829.25
2023-03-05T04:31:37.229Z,96797.22
2023-03-05T04:34:04.760Z,96814.84
2023-03-05T04:36:31.439Z,96806.28
2023-03-05T04:38:57.980Z,96801.47
2023-03-05T04:41:24.740Z,96789.72
2023-03-05T04:43:52.268Z,96800.66
2023-03-05T04:46:18.941Z,96808.94
2023-03-05T04:48:45.642Z,96811.88
2023-03-05T04:51:12.341Z,96798.53
2023-03-05T04:53:39.024Z,96806.00
2023-03-05T04:56:06.060Z,96785.72
2023-03-05T04:58:32.851Z,96774.25
2023-03-05T05:01:04.025Z,96796.13
2023-03-05T05:03:30.961Z,96794.78
2023-03-05T05:05:59.226Z,96785.44
2023-03-05T05:08:26.792Z,96792.38
2023-03-05T05:11:02.297Z,96786.81
2023-03-05T05:13:29.651Z,96796.19
2023-03-05T05:15:56.919Z,96795.66
2023-03-05T05:18:24.759Z,96794.34
2023-03-05T05:20:51.885Z,96794.34
2023-03-05T05:23:18.775Z,96796.22
2023-03-05T05:25:45.717Z,96806.91
2023-03-05T05:28:13.086Z,96803.16
2023-03-05T05:30:39.656Z,96813.06
2023-03-05T05:33:06.271Z,96816.78
2023-03-05T05:35:33.188Z,96817.59
2023-03-05T05:37:59.719Z,96816.50
2023-03-05T05:40:26.309Z,96818.94
2023-03-05T05:42:53.029Z,96820.00
2023-03-05T05:45:20.035Z,96813.59
2023-03-05T05:47:46.721Z,96813.34
2023-03-05T05:50:13.832Z,96810.91
2023-03-05T05:52:40.691Z,96815.44
2023-03-05T05:55:07.684Z,96815.69
2023-03-05T05:57:35.623Z,96803.38
2023-03-05T06:00:02.566Z,96809.81
2023-03-05T06:02:29.203Z,96796.19
2023-03-05T06:04:58.253Z,96812.22
2023-03-05T06:07:25.026Z,96806.34
2023-03-05T06:09:51.684Z,96798.31
2023-03-05T06:12:18.395Z,96796.19
2023-03-05T06:14:45.009Z,96797.78
2023-03-05T06:17:14.815Z,96798.84
2023-03-05T06:19:44.643Z,96798.06
2023-03-05T06:22:11.759Z,96788.69
2023-03-05T06:24:38.886Z,96794.81
2023-03-05T06:27:06.201Z,96799.09
2023-03-05T06:29:32.941Z,96786.50
2023-03-05T06:32:00.910Z,96774.53
2023-03-05T06:34:27.610Z,96800.66
2023-03-05T06:36:54.217Z,96801.72
2023-03-05T06:39:21.832Z,96772.59
2023-03-05T06:41:51.996Z,96785.13
2023-03-05T06:44:31.892Z,96788.03
2023-03-05T06:46:58.712Z,96781.59
2023-03-05T06:49:25.557Z,96774.38
2023-03-05T06:51:52.073Z,96769.00
2023-03-05T06:54:19.782Z,96770.34
2023-03-05T06:56:47.306Z,96779.66
2023-03-05T06:59:21.761Z,96771.63
2023-03-05T07:01:48.604Z,96770.78
2023-03-05T07:04:15.959Z,96770.78
2023-03-05T07:06:42.874Z,96773.97
2023-03-05T07:09:14.462Z,96767.53
2023-03-05T07:11:41.635Z,96755.53
2023-03-05T07:14:08.668Z,96765.63
2023-03-05T07:16:35.596Z,96743.16
2023-03-05T07:19:05.101Z,96739.47
2023-03-05T07:21:33.902Z,96763.72
2023-03-05T07:24:02.062Z,96767.13
2023-03-05T07:26:28.991Z,96765.50
2023-03-05T07:28:56.007Z,96744.38
2023-03-05T07:31:27.569Z,96750.75
2023-03-05T07:33:55.459Z,96740.25
2023-03-05T07:36:22.068Z,96737.63
2023-03-05T07:38:48.696Z,96753.09
2023-03-05T07:41:21.235Z,96725.66
2023-03-05T07:43:53.368Z,96740.78
2023-03-05T07:46:23.194Z,96714.31
2023-03-05T07:48:50.227Z,96731.09
2023-03-05T07:51:20.216Z,96744.38
2023-03-05T07:53:49.043Z,96733.94
2023-03-05T07:56:23.590Z,96733.84
2023-03-05T07:58:50.528Z,96742.88
2023-03-05T08:01:17.410Z,96719.41
2023-03-05T08:03:44.711Z,96715.38
2023-03-05T08:06:12.766Z,96708.94
2023-03-05T08:08:39.737Z,96741.47
2023-03-05T08:11:08.816Z,96733.72
2023-03-05T08:13:35.674Z,96726.47
2023-03-05T08:16:07.651Z,96731.00
2023-03-05T08:18:34.394Z,96718.34
2023-03-05T08:21:01.442Z,96726.31
2023-03-05T08:23:28.608Z,96707.84
2023-03-05T08:25:55.901Z,96723.53
2023-03-05T08:28:25.652Z,96710.91
2023-03-05T08:30:52.449Z,96707.88
2023-03-05T08:33:19.250Z,96694.81
2023-03-05T08:35:45.951Z,96720.34
2023-03-05T08:38:12.678Z,96714.31
2023-03-05T08:40:39.252Z,96727.13
2023-03-05T08:43:07.391Z,96700.84
2023-03-05T08:45:37.074Z,96694.09
2023-03-05T08:48:05.850Z,96704.44
2023-03-05T08:50:32.413Z,96711.03
2023-03-05T08:53:00.244Z,96710.84
2023-03-05T08:55:26.831Z,96692.19
2023-03-05T08:57:53.515Z,96699.44
2023-03-05T09:00:20.505Z,96705.75
2023-03-05T09:02:47.257Z,96699.31
2023-03-05T09:05:14.990Z,96680.88
2023-03-05T09:07:41.711Z,96691.06
2023-03-05T09:10:11.754Z,96671.50
2023-03-05T09:12:38.472Z,96689.63
2023-03-05T09:15:09.916Z,96694.66
2023-03-05T09:17:38.157Z,96699.69
2023-03-05T09:20:06.555Z,96655.41
2023-03-05T09:22:33.159Z,96679.03
2023-03-05T09:24:59.798Z,96666.59
2023-03-05T09:27:26.479Z,96671.34
2023-03-05T09:29:53.349Z,96675.44
2023-03-05T09:32:20.222Z,96685.66
2023-03-05T09:34:46.869Z,96680.84
2023-03-05T09:37:13.538Z,96680.41
2023-03-05T09:39:44.234Z,96679.91
2023-03-05T09:42:31.648Z,96673.31
2023-03-05T09:44:58.235Z,96668.44
2023-03-05T09:47:43.196Z,96668.88
2023-03-05T09:50:32.607Z,96660.25
2023-03-05T09:53:17.933Z,96649.91
2023-03-05T09:55:47.517Z,96657.13
2023-03-05T09:58:23.075Z,96664.94
2023-03-05T10:00:54.648Z,96637.50
2023-03-05T10:03:32.240Z,96646.69
2023-03-05T10:06:05.863Z,96648.03
2023-03-05T10:08:49.146Z,96646.81
2023-03-05T10:11:24.744Z,96646.38
2023-03-05T10:13:52.345Z,96636.09
2023-03-05T10:16:30.903Z,96641.34
2023-03-05T10:19:13.871Z,96628.50
2023-03-05T10:21:46.048Z,96634.97
2023-03-05T10:24:40.890Z,96632.69
2023-03-05T10:27:39.320Z,96632.25
2023-03-05T10:30:24.889Z,96629.34
2023-03-05T10:33:15.303Z,96631.31
2023-03-05T10:35:44.703Z,96623.03
2023-03-05T10:38:24.647Z,96618.03
2023-03-05T10:41:04.481Z,96612.78
2023-03-05T10:43:54.529Z,96609.59
2023-03-05T10:46:25.332Z,96608.28
2023-03-05T10:49:05.430Z,96601.63
2023-03-05T10:51:32.060Z,96597.91
2023-03-05T10:54:04.854Z,96614.06
2023-03-05T10:56:32.057Z,96599.66
2023-03-05T10:58:58.652Z,96601.69
2023-03-05T11:01:28.178Z,96601.06
2023-03-05T11:04:01.483Z,96599.88
2023-03-05T11:06:31.434Z,96601.34
2023-03-05T11:09:21.531Z,96607.94
2023-03-05T11:12:00.331Z,96600.66
2023-03-05T11:14:33.240Z,96586.88
2023-03-05T11:17:03.011Z,96587.59
2023-03-05T11:19:35.664Z,96584.91
2023-03-05T11:22:08.589Z,96578.47
2023-03-05T11:24:35.176Z,96571.50
2023-03-05T11:27:01.900Z,96581.22
2023-03-05T11:29:33.791Z,96556.66
2023-03-05T11:32:25.987Z,96566.88
2023-03-05T11:34:54.420Z,96569.53
2023-03-05T11:37:29.623Z,96572.59
2023-03-05T11:40:19.147Z,96558.53
2023-03-05T11:42:53.119Z,96567.66
2023-03-05T11:45:20.038Z,96554.81
2023-03-05T11:47:53.043Z,96572.88
2023-03-05T11:50:29.482Z,96551.97
2023-03-05T11:53:12.023Z,96559.66
2023-03-05T11:55:51.944Z,96554.50
2023-03-05T11:58:46.472Z,96539.59
2023-03-05T12:01:19.162Z,96543.28
2023-03-05T12:03:46.666Z,96531.78
2023-03-05T12:06:13.255Z,96528.19
2023-03-05T12:08:45.181Z,96524.31
2023-03-05T12:11:20.009Z,96521.28
2023-03-05T12:13:52.441Z,96494.78
2023-03-05T12:16:35.145Z,96522.09
2023-03-05T12:19:28.477Z,96530.94
2023-03-05T12:21:55.641Z,96522.56
2023-03-05T12:24:27.982Z,96518.78
2023-03-05T12:26:59.507Z,96521.00
2023-03-05T12:30:05.267Z,96520.00
2023-03-05T12:32:32.078Z,96530.81
2023-03-05T12:35:05.436Z,96526.22
2023-03-05T12:37:32.027Z,96527.78
2023-03-05T12:40:20.372Z,96519.84
2023-03-05T12:43:02.234Z,96520.06
2023-03-05T12:45:32.526Z,96508.31
2023-03-05T12:47:59.307Z,96500.47
2023-03-05T12:50:29.048Z,96514.97
2023-03-05T12:53:11.036Z,96488.31
2023-03-05T12:55:56.005Z,96520.72
2023-03-05T12:58:39.648Z,96476.44
2023-03-05T13:01:33.217Z,96508.97
2023-03-05T13:04:17.389Z,96510.19
2023-03-05T13:06:44.100Z,96495.41
2023-03-05T13:09:28.872Z,96501.09
2023-03-05T13:11:56.504Z,96500.69
2023-03-05T13:14:42.401Z,96497.41
2023-03-05T13:17:29.357Z,96489.66
2023-03-05T13:20:07.125Z,96470.25
2023-03-05T13:22:33.911Z,96474.53
2023-03-05T13:25:10.764Z,96482.94
2023-03-05T13:27:39.347Z,96482.03
2023-03-05T13:30:17.406Z,96471.44
2023-03-05T13:32:44.152Z,96501.00
2023-03-05T13:35:15.479Z,96491.16
2023-03-05T13:37:44.840Z,96477.22
2023-03-05T13:40:32.329Z,96474.72
2023-03-05T13:43:18.334Z,96501.47
2023-03-05T13:45:53.921Z,96508.22
2023-03-05T13:48:20.739Z,96481.22
2023-03-05T13:50:55.877Z,96511.97
2023-03-05T13:53:28.472Z,96506.59
2023-03-05T13:56:01.592Z,96436.50
2023-03-05T13:58:41.888Z,96499.06
2023-03-05T14:01:36.829Z,96498.88
2023-03-05T14:04:12.374Z,96492.72
2023-03-05T14:07:08.065Z,96490.41
2023-03-05T14:09:37.461Z,96482.75
2023-03-05T14:12:27.303Z,96481.94
2023-03-05T14:14:54.207Z,96466.81
2023-03-05T14:17:23.799Z,96460.72
2023-03-05T14:19:52.276Z,96464.00
2023-03-05T14:22:36.914Z,96471.78
2023-03-05T14:25:05.912Z,96487.31
2023-03-05T14:27:36.716Z,96450.19
2023-03-05T14:30:05.330Z,96440.09
2023-03-05T14:32:35.157Z,96475.22
2023-03-05T14:35:05.228Z,96488.28
2023-03-05T14:37:42.228Z,96445.66
2023-03-05T14:40:12.337Z,96473.72
2023-03-05T14:42:41.569Z,96475.88
2023-03-05T14:45:16.322Z,96484.94
2023-03-05T14:47:43.044Z,96477.41
2023-03-05T14:50:19.535Z,96492.53
2023-03-05T14:52:48.669Z,96467.91
2023-03-05T14:55:21.588Z,96488.16
2023-03-05T14:57:51.684Z,96477.56
2023-03-05T15:00:28.248Z,96481.47
2023-03-05T15:02:55.306Z,96471.44
2023-03-05T15:05:22.091Z,96480.50
2023-03-05T15:07:51.564Z,96471.72
2023-03-05T15:10:22.140Z,96440.13
2023-03-05T15:12:50.489Z,96456.81
2023-03-05T15:15:18.462Z,96475.00
2023-03-05T15:17:51.763Z,96467.78
2023-03-05T15:20:21.625Z,96480.72
2023-03-05T15:22:48.557Z,96431.94
2023-03-05T15:25:16.099Z,96466.16
2023-03-05T15:27:42.921Z,96460.38
2023-03-05T15:30:22.421Z,96463.63
2023-03-05T15:32:50.898Z,96454.81
2023-03-05T15:35:19.734Z,96455.59
2023-03-05T15:37:47.348Z,96449.09
2023-03-05T15:40:14.624Z,96452.56
2023-03-05T15:42:41.850Z,96447.78
2023-03-05T15:45:09.140Z,96456.84
2023-03-05T15:47:35.826Z,96439.53
2023-03-05T15:50:02.564Z,96456.31
2023-03-05T15:52:29.199Z,96450.75
2023-03-05T15:54:56.066Z,96459.56
2023-03-05T15:57:22.799Z,96454.34
2023-03-05T15:59:51.162Z,96453.31
2023-03-05T16:02:19.223Z,96464.56
2023-03-05T16:04:46.214Z,96459.19
2023-03-05T16:07:14.981Z,96446.38
2023-03-05T16:09:48.235Z,96433.13
2023-03-05T16:12:21.836Z,96460.75
2023-03-05T16:14:51.002Z,96455.94
2023-03-05T16:17:20.963Z,96439.56
2023-03-05T16:19:52.511Z,96441.09
2023-03-05T16:22:19.303Z,96445.38
2023-03-05T16:24:45.897Z,96446.16
2023-03-05T16:27:12.599Z,96417.19
2023-03-05T16:29:39.360Z,96446.81
2023-03-05T16:32:07.374Z,96438.13
2023-03-05T16:34:34.685Z,96451.16
2023-03-05T16:37:06.881Z,96442.75
2023-03-05T16:39:33.713Z,96452.31
2023-03-05T16:42:00.368Z,96451.50
2023-03-05T16:44:27.125Z,96435.78
2023-03-05T16:46:54.150Z,96439.56
2023-03-05T16:49:21.590Z,96456.50
2023-03-05T16:51:48.546Z,96455.94
2023-03-05T16:54:15.239Z,96429.97
2023-03-05T16:56:41.978Z,96460.38
2023-03-05T16:59:08.630Z,96471.56
2023-03-05T17:01:35.340Z,96445.03
2023-03-05T17:04:02.327Z,96475.41
2023-03-05T17:06:31.104Z,96486.38
2023-03-05T17:08:58.369Z,96481.63
2023-03-05T17:11:25.983Z,96492.81
2023-03-05T17:13:52.666Z,96503.03
2023-03-05T17:16:21.242Z,96513.50
2023-03-05T17:18:48.874Z,96511.16
2023-03-05T17:21:15.854Z,96513.50
2023-03-05T17:23:44.123Z,96507.16
2023-03-05T17:26:14.660Z,96523.25
2023-03-05T17:28:42.052Z,96522.78
2023-03-05T17:31:08.822Z,96517.50
2023-03-05T17:33:36.841Z,96475.72
2023-03-05T17:36:04.598Z,96503.41
2023-03-05T17:38:31.667Z,96511.66
2023-03-05T17:40:58.340Z,96510.59
2023-03-05T17:43:24.889Z,96498.81
2023-03-05T17:45:51.576Z,96501.19
2023-03-05T17:48:18.142Z,96506.53
2023-03-05T17:50:45.238Z,96498.84
2023-03-05T17:53:12.653Z,96499.94
2023-03-05T17:55:40.208Z,96487.72
2023-03-05T17:58:07.008Z,96469.13
2023-03-05T18:00:34.592Z,96494.16
2023-03-05T18:03:02.191Z,96505.69
2023-03-05T18:05:29.551Z,96487.66
2023-03-05T18:07:56.576Z,96496.75
2023-03-05T18:10:25.999Z,96483.94
2023-03-05T18:12:53.984Z,96496.91
2023-03-05T18:15:23.287Z,96497.34
2023-03-05T18:17:50.973Z,96492.63
2023-03-05T18:20:36.086Z,96488.44
2023-03-05T18:23:04.259Z,96502.31
2023-03-05T18:25:31.713Z,96499.44
2023-03-05T18:28:03.044Z,96496.47
2023-03-05T18:30:30.640Z,96491.41
2023-03-05T18:32:57.828Z,96496.72
2023-03-05T18:35:24.811Z,96500.19
2023-03-05T18:37:52.040Z,96492.28
2023-03-05T18:40:22.149Z,96499.19
2023-03-05T18:42:50.119Z,96486.19
2023-03-05T18:45:18.658Z,96487.50
2023-03-05T18:47:46.913Z,96501.09
2023-03-05T18:50:16.877Z,96508.03
2023-03-05T18:52:43.479Z,96503.22
2023-03-05T18:55:18.582Z,96475.81
2023-03-05T18:57:45.341Z,96499.19
2023-03-05T19:00:17.461Z,96474.19
2023-03-05T19:02:44.933Z,96489.00
2023-03-05T19:05:14.638Z,96476.19
2023-03-05T19:07:41.449Z,96488.72
2023-03-05T19:10:13.682Z,96478.88
2023-03-05T19:13:06.329Z,96477.22
2023-03-05T19:15:33.263Z,96486.81
2023-03-05T19:17:59.908Z,96435.41
2023-03-05T19:20:26.471Z,96490.22
2023-03-05T19:22:55.798Z,96480.16
2023-03-05T19:25:22.601Z,96490.00
2023-03-05T19:27:49.246Z,96484.41
2023-03-05T19:30:17.128Z,96445.31
2023-03-05T19:32:45.670Z,96497.34
2023-03-05T19:35:15.249Z,96500.03
2023-03-05T19:37:42.248Z,96489.34
2023-03-05T19:40:09.600Z,96463.50
2023-03-05T19:42:38.113Z,96465.69
2023-03-05T19:45:06.656Z,96488.53
2023-03-05T19:47:33.234Z,96476.31
2023-03-05T19:50:03.028Z,96434.81
2023-03-05T19:52:29.676Z,96460.28
2023-03-05T19:54:57.207Z,96477.59
2023-03-05T19:57:23.894Z,96477.38
2023-03-05T19:59:53.889Z,96499.25
2023-03-05T20:02:24.178Z,96456.88
2023-03-05T20:04:50.840Z,96480.06
2023-03-05T20:07:17.862Z,96487.50
2023-03-05T20:09:44.583Z,96482.22
2023-03-05T20:12:11.352Z,96491.59
2023-03-05T20:14:38.235Z,96477.22
2023-03-05T20:17:05.029Z,96490.25
2023-03-05T20:19:31.917Z,96479.56
2023-03-05T20:21:58.556Z,96478.81
2023-03-05T20:24:25.250Z,96458.50
2023-03-05T20:26:51.940Z,96471.50
2023-03-05T20:29:18.966Z,96463.47
2023-03-05T20:31:46.661Z,96444.63
2023-03-05T20:34:15.685Z,96455.78
2023-03-05T20:36:42.403Z,96465.88
2023-03-05T20:39:09.368Z,96475.50
2023-03-05T20:41:40.507Z,96466.25
2023-03-05T20:44:08.550Z,96480.97
2023-03-05T20:46:57.556Z,96475.13
2023-03-05T20:49:24.201Z,96428.38
2023-03-05T20:51:51.112Z,96477.81
2023-03-05T20:54:17.882Z,96474.34
2023-03-05T20:56:44.648Z,96471.13
2023-03-05T20:59:11.332Z,96468.44
2023-03-05T21:01:40.130Z,96447.44
2023-03-05T21:04:07.329Z,96461.50
2023-03-05T21:06:34.173Z,96454.41
2023-03-05T21:09:01.352Z,96461.28
2023-03-05T21:11:28.082Z,96453.78
2023-03-05T21:13:54.746Z,96404.81
2023-03-05T21:16:27.545Z,96451.38
2023-03-05T21:18:56.072Z,96446.28
2023-03-05T21:21:22.973Z,96431.88
2023-03-05T21:23:49.745Z,96433.88
2023-03-05T21:26:16.385Z,96438.31
2023-03-05T21:28:43.166Z,96412.47
2023-03-05T21:31:15.259Z,96405.28
2023-03-05T21:33:42.272Z,96425.72
2023-03-05T21:36:09.535Z,96446.19
2023-03-05T21:38:36.919Z,96444.88
2023-03-05T21:41:04.369Z,96440.09
2023-03-05T21:43:31.746Z,96419.59
2023-03-05T21:46:01.007Z,96431.06
2023-03-05T21:48:27.714Z,96418.56
2023-03-05T21:50:55.349Z,96420.63
2023-03-05T21:53:23.116Z,96405.66
2023-03-05T21:56:16.049Z,96387.56
2023-03-05T21:58:42.717Z,96396.34
2023-03-05T22:01:12.741Z,96410.97
2023-03-05T22:03:39.705Z,96391.50
2023-03-05T22:06:10.551Z,96383.19
2023-03-05T22:08:37.016Z,96403.69
2023-03-05T22:11:09.376Z,96377.47
2023-03-05T22:13:37.630Z,96399.00
2023-03-05T22:16:05.926Z,96412.22
2023-03-05T22:18:34.199Z,96388.53
2023-03-05T22:21:01.769Z,96405.56
2023-03-05T22:23:31.477Z,96409.84
2023-03-05T22:26:20.311Z,96412.53
2023-03-05T22:28:48.084Z,96393.63
2023-03-05T22:31:26.877Z,96391.69
2023-03-05T22:33:54.403Z,96391.91
2023-03-05T22:36:21.103Z,96371.22
2023-03-05T22:38:47.844Z,96358.22
2023-03-05T22:41:19.838Z,96382.16
2023-03-05T22:43:47.692Z,96363.75
2023-03-05T22:46:18.678Z,96385.34
2023-03-05T22:48:45.859Z,96377.09
2023-03-05T22:51:13.602Z,96381.38
2023-03-05T22:53:40.802Z,96384.34
2023-03-05T22:56:12.964Z,96387.56
2023-03-05T22:58:40.088Z,96393.44
2023-03-05T23:01:24.150Z,96388.59
2023-03-05T23:04:51.827Z,96370.44
2023-03-05T23:07:24.295Z,96384.91
2023-03-05T23:09:53.485Z,96386.94
2023-03-05T23:12:20.401Z,96391.84
2023-03-05T23:14:47.143Z,96381.69
2023-03-05T23:17:13.803Z,96360.16
2023-03-05T23:19:40.449Z,96373.72
2023-03-05T23:22:09.649Z,96385.97
2023-03-05T23:24:36.284Z,96361.00
2023-03-05T23:27:06.860Z,96380.22
2023-03-05T23:30:16.679Z,96395.66
2023-03-05T23:32:49.462Z,96395.44
2023-03-05T23:35:19.875Z,96375.22
2023-03-05T23:37:46.913Z,96376.81
2023-03-05T23:40:17.254Z,96382.38
2023-03-05T23:42:44.632Z,96366.41
2023-03-05T23:45:13.806Z,96369.00
2023-03-05T23:47:40.775Z,96392.16
2023-03-05T23:50:11.662Z,96393.50
2023-03-05T23:52:38.402Z,96368.81
2023-03-05T23:55:05.471Z,96389.63
2023-03-05T23:57:32.083Z,96388.78
2023-03-05T23:59:59.060Z,96389.88
